sensor_id;sensor_type;location;lat;lon;timestamp;pressure;altitude;pressure_sealevel;temperature
71205;BMP180;58935;54.498;18.544;2023-12-28T00:01:15;100526.20;;;2.30
71205;BMP180;58935;54.498;18.544;2023-12-28T00:03:40;100513.60;;;2.20
71205;BMP180;58935;54.498;18.544;2023-12-28T00:06:06;100511.60;;;2.20
71205;BMP180;58935;54.498;18.544;2023-12-28T00:08:32;100494.60;;;2.10
71205;BMP180;58935;54.498;18.544;2023-12-28T00:11:00;100497.00;;;2.10
71205;BMP180;58935;54.498;18.544;2023-12-28T00:13:30;100490.20;;;2.10
71205;BMP180;58935;54.498;18.544;2023-12-28T00:15:55;100481.40;;;2.10
71205;BMP180;58935;54.498;18.544;2023-12-28T00:18:20;100475.40;;;2.10
71205;BMP180;58935;54.498;18.544;2023-12-28T00:20:46;100469.60;;;2.02
71205;BMP180;58935;54.498;18.544;2023-12-28T00:23:13;100482.40;;;2.00
71205;BMP180;58935;54.498;18.544;2023-12-28T00:25:41;100489.00;;;2.00
71205;BMP180;58935;54.498;18.544;2023-12-28T00:28:06;100487.40;;;1.98
71205;BMP180;58935;54.498;18.544;2023-12-28T00:30:32;100471.80;;;2.00
71205;BMP180;58935;54.498;18.544;2023-12-28T00:32:58;100469.40;;;2.00
71205;BMP180;58935;54.498;18.544;2023-12-28T00:35:23;100456.40;;;2.00
71205;BMP180;58935;54.498;18.544;2023-12-28T00:37:49;100446.60;;;2.00
71205;BMP180;58935;54.498;18.544;2023-12-28T00:40:14;100447.40;;;1.92
71205;BMP180;58935;54.498;18.544;2023-12-28T00:42:40;100443.40;;;1.90
71205;BMP180;58935;54.498;18.544;2023-12-28T00:45:08;100452.00;;;1.90
71205;BMP180;58935;54.498;18.544;2023-12-28T00:47:33;100460.60;;;1.90
71205;BMP180;58935;54.498;18.544;2023-12-28T00:49:59;100467.80;;;1.90
71205;BMP180;58935;54.498;18.544;2023-12-28T00:52:24;100461.40;;;1.90
71205;BMP180;58935;54.498;18.544;2023-12-28T00:54:49;100459.80;;;1.90
71205;BMP180;58935;54.498;18.544;2023-12-28T00:57:15;100454.00;;;1.90
71205;BMP180;58935;54.498;18.544;2023-12-28T00:59:40;100453.60;;;1.90
71205;BMP180;58935;54.498;18.544;2023-12-28T01:02:05;100454.60;;;1.90
71205;BMP180;58935;54.498;18.544;2023-12-28T01:04:31;100444.40;;;1.86
71205;BMP180;58935;54.498;18.544;2023-12-28T01:06:56;100434.00;;;1.86
71205;BMP180;58935;54.498;18.544;2023-12-28T01:09:22;100428.20;;;1.90
71205;BMP180;58935;54.498;18.544;2023-12-28T01:11:47;100420.20;;;1.84
71205;BMP180;58935;54.498;18.544;2023-12-28T01:14:13;100427.20;;;1.82
71205;BMP180;58935;54.498;18.544;2023-12-28T01:16:38;100426.40;;;1.80
71205;BMP180;58935;54.498;18.544;2023-12-28T01:19:05;100422.40;;;1.80
71205;BMP180;58935;54.498;18.544;2023-12-28T01:21:31;100428.60;;;1.80
71205;BMP180;58935;54.498;18.544;2023-12-28T01:23:56;100430.60;;;1.80
71205;BMP180;58935;54.498;18.544;2023-12-28T01:26:22;100427.80;;;1.80
71205;BMP180;58935;54.498;18.544;2023-12-28T01:28:47;100416.40;;;1.80
71205;BMP180;58935;54.498;18.544;2023-12-28T01:31:12;100413.00;;;1.80
71205;BMP180;58935;54.498;18.544;2023-12-28T01:33:40;100398.40;;;1.72
71205;BMP180;58935;54.498;18.544;2023-12-28T01:38:40;100382.00;;;1.70
71205;BMP180;58935;54.498;18.544;2023-12-28T01:41:05;100371.40;;;1.60
71205;BMP180;58935;54.498;18.544;2023-12-28T01:43:30;100362.20;;;1.60
71205;BMP180;58935;54.498;18.544;2023-12-28T01:45:56;100352.20;;;1.50
71205;BMP180;58935;54.498;18.544;2023-12-28T01:48:24;100351.80;;;1.50
71205;BMP180;58935;54.498;18.544;2023-12-28T01:50:49;100345.80;;;1.50
71205;BMP180;58935;54.498;18.544;2023-12-28T01:53:15;100339.00;;;1.50
71205;BMP180;58935;54.498;18.544;2023-12-28T01:55:40;100321.20;;;1.50
71205;BMP180;58935;54.498;18.544;2023-12-28T01:58:08;100311.00;;;1.42
71205;BMP180;58935;54.498;18.544;2023-12-28T02:00:34;100315.80;;;1.40
71205;BMP180;58935;54.498;18.544;2023-12-28T02:03:02;100316.80;;;1.40
71205;BMP180;58935;54.498;18.544;2023-12-28T02:05:27;100318.00;;;1.32
71205;BMP180;58935;54.498;18.544;2023-12-28T02:07:54;100305.60;;;1.30
71205;BMP180;58935;54.498;18.544;2023-12-28T02:10:19;100297.00;;;1.30
71205;BMP180;58935;54.498;18.544;2023-12-28T02:12:44;100293.00;;;1.30
71205;BMP180;58935;54.498;18.544;2023-12-28T02:15:10;100283.80;;;1.30
71205;BMP180;58935;54.498;18.544;2023-12-28T02:17:44;100264.80;;;1.24
71205;BMP180;58935;54.498;18.544;2023-12-28T02:20:14;100260.40;;;1.20
71205;BMP180;58935;54.498;18.544;2023-12-28T02:22:40;100259.80;;;1.20
71205;BMP180;58935;54.498;18.544;2023-12-28T02:25:11;100250.40;;;1.20
71205;BMP180;58935;54.498;18.544;2023-12-28T02:27:42;100237.80;;;1.16
71205;BMP180;58935;54.498;18.544;2023-12-28T02:30:10;100222.00;;;1.10
71205;BMP180;58935;54.498;18.544;2023-12-28T02:32:47;100228.00;;;1.10
71205;BMP180;58935;54.498;18.544;2023-12-28T02:35:27;100223.60;;;1.10
71205;BMP180;58935;54.498;18.544;2023-12-28T02:37:59;100218.20;;;1.10
71205;BMP180;58935;54.498;18.544;2023-12-28T02:40:26;100199.20;;;1.10
71205;BMP180;58935;54.498;18.544;2023-12-28T02:42:53;100192.00;;;1.10
71205;BMP180;58935;54.498;18.544;2023-12-28T02:45:19;100199.00;;;1.06
71205;BMP180;58935;54.498;18.544;2023-12-28T02:47:45;100203.00;;;1.02
71205;BMP180;58935;54.498;18.544;2023-12-28T02:50:11;100196.80;;;1.04
71205;BMP180;58935;54.498;18.544;2023-12-28T02:52:36;100193.60;;;1.10
71205;BMP180;58935;54.498;18.544;2023-12-28T02:55:02;100184.00;;;1.10
71205;BMP180;58935;54.498;18.544;2023-12-28T02:57:27;100178.00;;;1.10
71205;BMP180;58935;54.498;18.544;2023-12-28T02:59:53;100173.80;;;1.10
71205;BMP180;58935;54.498;18.544;2023-12-28T03:02:18;100182.00;;;1.10
71205;BMP180;58935;54.498;18.544;2023-12-28T03:04:43;100178.40;;;1.10
71205;BMP180;58935;54.498;18.544;2023-12-28T03:07:09;100164.20;;;1.10
71205;BMP180;58935;54.498;18.544;2023-12-28T03:09:34;100161.60;;;1.10
71205;BMP180;58935;54.498;18.544;2023-12-28T03:12:00;100153.20;;;1.10
71205;BMP180;58935;54.498;18.544;2023-12-28T03:14:28;100152.00;;;1.10
71205;BMP180;58935;54.498;18.544;2023-12-28T03:16:53;100145.80;;;1.10
71205;BMP180;58935;54.498;18.544;2023-12-28T03:19:19;100138.40;;;1.10
71205;BMP180;58935;54.498;18.544;2023-12-28T03:21:46;100142.40;;;1.10
71205;BMP180;58935;54.498;18.544;2023-12-28T03:24:12;100142.00;;;1.10
71205;BMP180;58935;54.498;18.544;2023-12-28T03:26:39;100130.60;;;1.10
71205;BMP180;58935;54.498;18.544;2023-12-28T03:29:06;100123.80;;;1.14
71205;BMP180;58935;54.498;18.544;2023-12-28T03:31:32;100129.60;;;1.18
71205;BMP180;58935;54.498;18.544;2023-12-28T03:33:59;100117.80;;;1.20
71205;BMP180;58935;54.498;18.544;2023-12-28T03:36:25;100108.00;;;1.20
71205;BMP180;58935;54.498;18.544;2023-12-28T03:38:50;100092.00;;;1.20
71205;BMP180;58935;54.498;18.544;2023-12-28T03:41:17;100082.40;;;1.20
71205;BMP180;58935;54.498;18.544;2023-12-28T03:43:44;100082.40;;;1.20
71205;BMP180;58935;54.498;18.544;2023-12-28T03:46:10;100060.20;;;1.20
71205;BMP180;58935;54.498;18.544;2023-12-28T03:48:36;100052.60;;;1.20
71205;BMP180;58935;54.498;18.544;2023-12-28T03:51:03;100046.80;;;1.20
71205;BMP180;58935;54.498;18.544;2023-12-28T03:53:28;100040.00;;;1.20
71205;BMP180;58935;54.498;18.544;2023-12-28T03:55:54;100033.60;;;1.20
71205;BMP180;58935;54.498;18.544;2023-12-28T03:58:19;100009.20;;;1.20
71205;BMP180;58935;54.498;18.544;2023-12-28T04:00:44;100000.60;;;1.18
71205;BMP180;58935;54.498;18.544;2023-12-28T04:03:10;99985.40;;;1.10
71205;BMP180;58935;54.498;18.544;2023-12-28T04:05:35;99972.80;;;1.10
71205;BMP180;58935;54.498;18.544;2023-12-28T04:08:00;99965.40;;;1.10
71205;BMP180;58935;54.498;18.544;2023-12-28T04:10:31;99968.80;;;1.10
71205;BMP180;58935;54.498;18.544;2023-12-28T04:12:57;99957.20;;;1.10
71205;BMP180;58935;54.498;18.544;2023-12-28T04:15:23;99951.40;;;1.10
71205;BMP180;58935;54.498;18.544;2023-12-28T04:17:49;99945.60;;;1.10
71205;BMP180;58935;54.498;18.544;2023-12-28T04:20:15;99949.00;;;1.10
71205;BMP180;58935;54.498;18.544;2023-12-28T04:22:40;99934.80;;;1.10
71205;BMP180;58935;54.498;18.544;2023-12-28T04:25:10;99933.40;;;1.10
71205;BMP180;58935;54.498;18.544;2023-12-28T04:27:39;99919.60;;;1.10
71205;BMP180;58935;54.498;18.544;2023-12-28T04:30:11;99900.00;;;1.10
71205;BMP180;58935;54.498;18.544;2023-12-28T04:32:36;99892.20;;;1.10
71205;BMP180;58935;54.498;18.544;2023-12-28T04:35:02;99882.80;;;1.10
71205;BMP180;58935;54.498;18.544;2023-12-28T04:37:29;99876.80;;;1.00
71205;BMP180;58935;54.498;18.544;2023-12-28T04:39:56;99867.80;;;1.00
71205;BMP180;58935;54.498;18.544;2023-12-28T04:42:22;99868.00;;;1.00
71205;BMP180;58935;54.498;18.544;2023-12-28T04:44:47;99858.00;;;1.02
71205;BMP180;58935;54.498;18.544;2023-12-28T04:47:15;99861.80;;;1.04
71205;BMP180;58935;54.498;18.544;2023-12-28T04:49:42;99849.80;;;1.02
71205;BMP180;58935;54.498;18.544;2023-12-28T04:52:08;99846.80;;;1.10
71205;BMP180;58935;54.498;18.544;2023-12-28T04:54:33;99832.60;;;1.10
71205;BMP180;58935;54.498;18.544;2023-12-28T04:56:59;99822.00;;;1.10
71205;BMP180;58935;54.498;18.544;2023-12-28T04:59:25;99832.60;;;1.10
71205;BMP180;58935;54.498;18.544;2023-12-28T05:01:51;99825.60;;;1.10
71205;BMP180;58935;54.498;18.544;2023-12-28T05:04:19;99805.80;;;1.12
71205;BMP180;58935;54.498;18.544;2023-12-28T05:06:44;99791.80;;;1.20
71205;BMP180;58935;54.498;18.544;2023-12-28T05:09:10;99776.40;;;1.20
71205;BMP180;58935;54.498;18.544;2023-12-28T05:11:38;99762.20;;;1.20
71205;BMP180;58935;54.498;18.544;2023-12-28T05:14:05;99752.00;;;1.20
71205;BMP180;58935;54.498;18.544;2023-12-28T05:16:31;99741.80;;;1.22
71205;BMP180;58935;54.498;18.544;2023-12-28T05:18:56;99735.80;;;1.30
71205;BMP180;58935;54.498;18.544;2023-12-28T05:21:21;99727.20;;;1.30
71205;BMP180;58935;54.498;18.544;2023-12-28T05:23:48;99716.00;;;1.30
71205;BMP180;58935;54.498;18.544;2023-12-28T05:26:16;99713.60;;;1.30
71205;BMP180;58935;54.498;18.544;2023-12-28T05:28:41;99729.00;;;1.30
71205;BMP180;58935;54.498;18.544;2023-12-28T05:31:07;99738.40;;;1.30
71205;BMP180;58935;54.498;18.544;2023-12-28T05:33:32;99745.20;;;1.30
71205;BMP180;58935;54.498;18.544;2023-12-28T05:35:57;99742.00;;;1.30
71205;BMP180;58935;54.498;18.544;2023-12-28T05:38:23;99738.40;;;1.36
71205;BMP180;58935;54.498;18.544;2023-12-28T05:40:48;99734.00;;;1.40
71205;BMP180;58935;54.498;18.544;2023-12-28T05:43:13;99732.60;;;1.40
71205;BMP180;58935;54.498;18.544;2023-12-28T05:45:39;99736.60;;;1.40
71205;BMP180;58935;54.498;18.544;2023-12-28T05:48:09;99738.60;;;1.46
71205;BMP180;58935;54.498;18.544;2023-12-28T05:50:34;99742.60;;;1.50
71205;BMP180;58935;54.498;18.544;2023-12-28T05:53:00;99744.80;;;1.50
71205;BMP180;58935;54.498;18.544;2023-12-28T05:55:25;99745.20;;;1.58
71205;BMP180;58935;54.498;18.544;2023-12-28T05:57:52;99747.20;;;1.60
71205;BMP180;58935;54.498;18.544;2023-12-28T06:00:18;99741.20;;;1.60
71205;BMP180;58935;54.498;18.544;2023-12-28T06:02:44;99734.60;;;1.68
71205;BMP180;58935;54.498;18.544;2023-12-28T06:05:12;99742.40;;;1.70
71205;BMP180;58935;54.498;18.544;2023-12-28T06:07:37;99745.00;;;1.70
71205;BMP180;58935;54.498;18.544;2023-12-28T06:10:03;99746.20;;;1.80
71205;BMP180;58935;54.498;18.544;2023-12-28T06:12:29;99745.20;;;1.80
71205;BMP180;58935;54.498;18.544;2023-12-28T06:14:55;99732.00;;;1.90
71205;BMP180;58935;54.498;18.544;2023-12-28T06:17:20;99722.00;;;1.90
71205;BMP180;58935;54.498;18.544;2023-12-28T06:19:48;99714.40;;;1.90
71205;BMP180;58935;54.498;18.544;2023-12-28T06:22:15;99704.60;;;2.00
71205;BMP180;58935;54.498;18.544;2023-12-28T06:24:40;99707.80;;;2.00
71205;BMP180;58935;54.498;18.544;2023-12-28T06:27:06;99700.60;;;2.10
71205;BMP180;58935;54.498;18.544;2023-12-28T06:29:31;99694.80;;;2.10
71205;BMP180;58935;54.498;18.544;2023-12-28T06:31:56;99688.00;;;2.20
71205;BMP180;58935;54.498;18.544;2023-12-28T06:34:24;99690.80;;;2.20
71205;BMP180;58935;54.498;18.544;2023-12-28T06:36:53;99687.80;;;2.20
71205;BMP180;58935;54.498;18.544;2023-12-28T06:39:18;99685.20;;;2.30
71205;BMP180;58935;54.498;18.544;2023-12-28T06:41:49;99688.40;;;2.30
71205;BMP180;58935;54.498;18.544;2023-12-28T06:44:15;99677.20;;;2.40
71205;BMP180;58935;54.498;18.544;2023-12-28T06:46:41;99675.60;;;2.40
71205;BMP180;58935;54.498;18.544;2023-12-28T06:49:09;99671.60;;;2.40
71205;BMP180;58935;54.498;18.544;2023-12-28T06:51:34;99677.20;;;2.50
71205;BMP180;58935;54.498;18.544;2023-12-28T06:53:59;99674.80;;;2.50
71205;BMP180;58935;54.498;18.544;2023-12-28T06:56:25;99679.00;;;2.60
71205;BMP180;58935;54.498;18.544;2023-12-28T06:58:50;99691.00;;;2.60
71205;BMP180;58935;54.498;18.544;2023-12-28T07:01:16;99695.40;;;2.70
71205;BMP180;58935;54.498;18.544;2023-12-28T07:03:41;99691.60;;;2.80
71205;BMP180;58935;54.498;18.544;2023-12-28T07:06:07;99692.60;;;2.80
71205;BMP180;58935;54.498;18.544;2023-12-28T07:08:34;99692.40;;;2.90
71205;BMP180;58935;54.498;18.544;2023-12-28T07:11:02;99698.60;;;2.90
71205;BMP180;58935;54.498;18.544;2023-12-28T07:13:28;99693.00;;;3.00
71205;BMP180;58935;54.498;18.544;2023-12-28T07:15:54;99695.20;;;3.04
71205;BMP180;58935;54.498;18.544;2023-12-28T07:18:20;99694.40;;;3.10
71205;BMP180;58935;54.498;18.544;2023-12-28T07:20:45;99710.40;;;3.12
71205;BMP180;58935;54.498;18.544;2023-12-28T07:23:10;99724.00;;;3.20
71205;BMP180;58935;54.498;18.544;2023-12-28T07:25:40;99736.60;;;3.20
71205;BMP180;58935;54.498;18.544;2023-12-28T07:28:05;99733.80;;;3.22
71205;BMP180;58935;54.498;18.544;2023-12-28T07:30:31;99740.20;;;3.30
71205;BMP180;58935;54.498;18.544;2023-12-28T07:32:56;99740.00;;;3.30
71205;BMP180;58935;54.498;18.544;2023-12-28T07:35:22;99730.20;;;3.30
71205;BMP180;58935;54.498;18.544;2023-12-28T07:37:50;99730.40;;;3.38
71205;BMP180;58935;54.498;18.544;2023-12-28T07:40:15;99729.40;;;3.40
71205;BMP180;58935;54.498;18.544;2023-12-28T07:42:41;99725.80;;;3.48
71205;BMP180;58935;54.498;18.544;2023-12-28T07:45:07;99728.60;;;3.50
71205;BMP180;58935;54.498;18.544;2023-12-28T07:47:32;99724.00;;;3.50
71205;BMP180;58935;54.498;18.544;2023-12-28T07:49:59;99718.80;;;3.58
71205;BMP180;58935;54.498;18.544;2023-12-28T07:52:26;99720.40;;;3.60
71205;BMP180;58935;54.498;18.544;2023-12-28T07:54:53;99713.40;;;3.64
71205;BMP180;58935;54.498;18.544;2023-12-28T07:57:18;99711.40;;;3.70
71205;BMP180;58935;54.498;18.544;2023-12-28T07:59:44;99701.80;;;3.70
71205;BMP180;58935;54.498;18.544;2023-12-28T08:02:09;99698.00;;;3.76
71205;BMP180;58935;54.498;18.544;2023-12-28T08:04:35;99692.20;;;3.80
71205;BMP180;58935;54.498;18.544;2023-12-28T08:07:02;99682.00;;;3.80
71205;BMP180;58935;54.498;18.544;2023-12-28T08:09:29;99696.40;;;3.80
71205;BMP180;58935;54.498;18.544;2023-12-28T08:11:55;99706.20;;;3.80
71205;BMP180;58935;54.498;18.544;2023-12-28T08:14:21;99715.20;;;3.84
71205;BMP180;58935;54.498;18.544;2023-12-28T08:16:48;99711.40;;;3.90
71205;BMP180;58935;54.498;18.544;2023-12-28T08:19:14;99717.80;;;3.90
71205;BMP180;58935;54.498;18.544;2023-12-28T08:21:39;99712.20;;;3.90
71205;BMP180;58935;54.498;18.544;2023-12-28T08:24:05;99705.00;;;3.90
71205;BMP180;58935;54.498;18.544;2023-12-28T08:26:30;99724.40;;;3.90
71205;BMP180;58935;54.498;18.544;2023-12-28T08:28:58;99721.00;;;3.90
71205;BMP180;58935;54.498;18.544;2023-12-28T08:31:24;99724.00;;;3.96
71205;BMP180;58935;54.498;18.544;2023-12-28T08:33:50;99734.80;;;4.00
71205;BMP180;58935;54.498;18.544;2023-12-28T08:36:15;99719.60;;;4.00
71205;BMP180;58935;54.498;18.544;2023-12-28T08:38:43;99718.80;;;4.00
71205;BMP180;58935;54.498;18.544;2023-12-28T08:41:18;99721.80;;;4.10
71205;BMP180;58935;54.498;18.544;2023-12-28T08:43:45;99715.80;;;4.10
71205;BMP180;58935;54.498;18.544;2023-12-28T08:46:10;99728.80;;;4.10
71205;BMP180;58935;54.498;18.544;2023-12-28T08:48:35;99728.20;;;4.12
71205;BMP180;58935;54.498;18.544;2023-12-28T08:51:01;99722.40;;;4.20
71205;BMP180;58935;54.498;18.544;2023-12-28T08:53:26;99735.40;;;4.20
71205;BMP180;58935;54.498;18.544;2023-12-28T08:55:54;99736.40;;;4.30
71205;BMP180;58935;54.498;18.544;2023-12-28T08:58:19;99741.20;;;4.30
71205;BMP180;58935;54.498;18.544;2023-12-28T09:00:45;99745.40;;;4.40
71205;BMP180;58935;54.498;18.544;2023-12-28T09:03:11;99747.60;;;4.50
71205;BMP180;58935;54.498;18.544;2023-12-28T09:05:39;99745.20;;;4.50
71205;BMP180;58935;54.498;18.544;2023-12-28T09:08:04;99742.00;;;4.60
71205;BMP180;58935;54.498;18.544;2023-12-28T09:10:30;99742.40;;;4.70
71205;BMP180;58935;54.498;18.544;2023-12-28T09:12:56;99744.20;;;4.70
71205;BMP180;58935;54.498;18.544;2023-12-28T09:15:23;99741.00;;;4.74
71205;BMP180;58935;54.498;18.544;2023-12-28T09:17:49;99736.20;;;4.80
71205;BMP180;58935;54.498;18.544;2023-12-28T09:20:18;99734.60;;;4.90
71205;BMP180;58935;54.498;18.544;2023-12-28T09:22:44;99732.20;;;4.90
71205;BMP180;58935;54.498;18.544;2023-12-28T09:25:09;99724.80;;;5.00
71205;BMP180;58935;54.498;18.544;2023-12-28T09:27:37;99729.80;;;5.00
71205;BMP180;58935;54.498;18.544;2023-12-28T09:30:03;99732.40;;;5.10
71205;BMP180;58935;54.498;18.544;2023-12-28T09:32:31;99735.40;;;5.10
71205;BMP180;58935;54.498;18.544;2023-12-28T09:34:59;99731.20;;;5.10
71205;BMP180;58935;54.498;18.544;2023-12-28T09:37:24;99753.40;;;5.14
71205;BMP180;58935;54.498;18.544;2023-12-28T09:39:49;99753.80;;;5.20
71205;BMP180;58935;54.498;18.544;2023-12-28T09:42:24;99755.00;;;5.20
71205;BMP180;58935;54.498;18.544;2023-12-28T09:44:51;99743.60;;;5.22
71205;BMP180;58935;54.498;18.544;2023-12-28T09:47:16;99734.00;;;5.30
71205;BMP180;58935;54.498;18.544;2023-12-28T09:49:43;99728.40;;;5.30
71205;BMP180;58935;54.498;18.544;2023-12-28T09:52:09;99722.60;;;5.30
71205;BMP180;58935;54.498;18.544;2023-12-28T09:54:35;99714.00;;;5.40
71205;BMP180;58935;54.498;18.544;2023-12-28T09:57:03;99714.20;;;5.40
71205;BMP180;58935;54.498;18.544;2023-12-28T09:59:32;99711.20;;;5.42
71205;BMP180;58935;54.498;18.544;2023-12-28T10:02:00;99713.60;;;5.50
71205;BMP180;58935;54.498;18.544;2023-12-28T10:04:28;99713.20;;;5.50
71205;BMP180;58935;54.498;18.544;2023-12-28T10:06:54;99720.60;;;5.50
71205;BMP180;58935;54.498;18.544;2023-12-28T10:09:21;99724.00;;;5.60
71205;BMP180;58935;54.498;18.544;2023-12-28T10:11:47;99733.40;;;5.60
71205;BMP180;58935;54.498;18.544;2023-12-28T10:14:13;99736.20;;;5.68
71205;BMP180;58935;54.498;18.544;2023-12-28T10:16:41;99733.00;;;5.70
71205;BMP180;58935;54.498;18.544;2023-12-28T10:19:07;99730.40;;;5.70
71205;BMP180;58935;54.498;18.544;2023-12-28T10:21:33;99728.80;;;5.80
71205;BMP180;58935;54.498;18.544;2023-12-28T10:23:59;99723.20;;;5.80
71205;BMP180;58935;54.498;18.544;2023-12-28T10:26:26;99725.60;;;5.82
71205;BMP180;58935;54.498;18.544;2023-12-28T10:28:59;99731.00;;;5.90
71205;BMP180;58935;54.498;18.544;2023-12-28T10:31:25;99732.40;;;5.90
71205;BMP180;58935;54.498;18.544;2023-12-28T10:33:53;99733.80;;;5.90
71205;BMP180;58935;54.498;18.544;2023-12-28T10:36:19;99732.40;;;5.90
71205;BMP180;58935;54.498;18.544;2023-12-28T10:38:51;99725.60;;;5.90
71205;BMP180;58935;54.498;18.544;2023-12-28T10:41:18;99735.20;;;6.00
71205;BMP180;58935;54.498;18.544;2023-12-28T10:43:53;99720.20;;;6.00
71205;BMP180;58935;54.498;18.544;2023-12-28T10:46:26;99722.60;;;6.00
71205;BMP180;58935;54.498;18.544;2023-12-28T10:48:59;99727.20;;;6.02
71205;BMP180;58935;54.498;18.544;2023-12-28T10:51:25;99716.80;;;6.10
71205;BMP180;58935;54.498;18.544;2023-12-28T10:54:11;99706.60;;;6.10
71205;BMP180;58935;54.498;18.544;2023-12-28T10:56:46;99700.20;;;6.20
71205;BMP180;58935;54.498;18.544;2023-12-28T11:01:58;99726.80;;;6.20
71205;BMP180;58935;54.498;18.544;2023-12-28T11:04:37;99733.80;;;6.28
71205;BMP180;58935;54.498;18.544;2023-12-28T11:07:05;99729.20;;;6.30
71205;BMP180;58935;54.498;18.544;2023-12-28T11:09:35;99733.40;;;6.30
71205;BMP180;58935;54.498;18.544;2023-12-28T11:12:07;99730.60;;;6.30
71205;BMP180;58935;54.498;18.544;2023-12-28T11:14:34;99731.40;;;6.30
71205;BMP180;58935;54.498;18.544;2023-12-28T11:17:01;99730.00;;;6.36
71205;BMP180;58935;54.498;18.544;2023-12-28T11:19:29;99733.80;;;6.40
71205;BMP180;58935;54.498;18.544;2023-12-28T11:21:56;99727.40;;;6.40
71205;BMP180;58935;54.498;18.544;2023-12-28T11:24:27;99718.00;;;6.40
71205;BMP180;58935;54.498;18.544;2023-12-28T11:26:54;99708.20;;;6.40
71205;BMP180;58935;54.498;18.544;2023-12-28T11:29:20;99704.00;;;6.40
71205;BMP180;58935;54.498;18.544;2023-12-28T11:31:51;99701.40;;;6.40
71205;BMP180;58935;54.498;18.544;2023-12-28T11:34:17;99705.80;;;6.40
71205;BMP180;58935;54.498;18.544;2023-12-28T11:36:49;99703.20;;;6.40
71205;BMP180;58935;54.498;18.544;2023-12-28T11:39:30;99694.20;;;6.44
71205;BMP180;58935;54.498;18.544;2023-12-28T11:42:03;99701.20;;;6.50
71205;BMP180;58935;54.498;18.544;2023-12-28T11:44:30;99703.80;;;6.50
71205;BMP180;58935;54.498;18.544;2023-12-28T11:46:57;99700.60;;;6.50
71205;BMP180;58935;54.498;18.544;2023-12-28T11:49:26;99697.80;;;6.60
71205;BMP180;58935;54.498;18.544;2023-12-28T11:51:57;99704.20;;;6.66
71205;BMP180;58935;54.498;18.544;2023-12-28T11:54:25;99706.00;;;6.70
71205;BMP180;58935;54.498;18.544;2023-12-28T11:56:51;99696.80;;;6.80
71205;BMP180;58935;54.498;18.544;2023-12-28T11:59:18;99683.20;;;6.90
71205;BMP180;58935;54.498;18.544;2023-12-28T12:01:50;99665.20;;;6.90
71205;BMP180;58935;54.498;18.544;2023-12-28T12:04:18;99675.80;;;7.00
71205;BMP180;58935;54.498;18.544;2023-12-28T12:06:47;99676.00;;;7.00
71205;BMP180;58935;54.498;18.544;2023-12-28T12:09:14;99669.40;;;7.10
71205;BMP180;58935;54.498;18.544;2023-12-28T12:11:40;99674.00;;;7.10
71205;BMP180;58935;54.498;18.544;2023-12-28T12:14:09;99663.60;;;7.20
71205;BMP180;58935;54.498;18.544;2023-12-28T12:16:37;99653.80;;;7.20
71205;BMP180;58935;54.498;18.544;2023-12-28T12:19:30;99663.20;;;7.28
71205;BMP180;58935;54.498;18.544;2023-12-28T12:21:56;99668.80;;;7.30
71205;BMP180;58935;54.498;18.544;2023-12-28T12:24:23;99664.80;;;7.30
71205;BMP180;58935;54.498;18.544;2023-12-28T12:26:52;99674.60;;;7.36
71205;BMP180;58935;54.498;18.544;2023-12-28T12:29:18;99681.20;;;7.40
71205;BMP180;58935;54.498;18.544;2023-12-28T12:31:46;99679.20;;;7.40
71205;BMP180;58935;54.498;18.544;2023-12-28T12:34:16;99670.60;;;7.40
71205;BMP180;58935;54.498;18.544;2023-12-28T12:36:42;99677.20;;;7.46
71205;BMP180;58935;54.498;18.544;2023-12-28T12:39:10;99674.00;;;7.50
71205;BMP180;58935;54.498;18.544;2023-12-28T12:41:37;99666.40;;;7.50
71205;BMP180;58935;54.498;18.544;2023-12-28T12:44:04;99661.60;;;7.50
71205;BMP180;58935;54.498;18.544;2023-12-28T12:46:30;99656.00;;;7.60
71205;BMP180;58935;54.498;18.544;2023-12-28T12:49:00;99656.40;;;7.60
71205;BMP180;58935;54.498;18.544;2023-12-28T12:51:29;99660.40;;;7.60
71205;BMP180;58935;54.498;18.544;2023-12-28T12:53:57;99659.80;;;7.70
71205;BMP180;58935;54.498;18.544;2023-12-28T12:56:25;99655.40;;;7.70
71205;BMP180;58935;54.498;18.544;2023-12-28T12:58:54;99656.20;;;7.70
71205;BMP180;58935;54.498;18.544;2023-12-28T13:01:23;99650.40;;;7.70
71205;BMP180;58935;54.498;18.544;2023-12-28T13:03:50;99650.80;;;7.70
71205;BMP180;58935;54.498;18.544;2023-12-28T13:06:16;99645.20;;;7.70
71205;BMP180;58935;54.498;18.544;2023-12-28T13:08:42;99640.20;;;7.70
71205;BMP180;58935;54.498;18.544;2023-12-28T13:11:07;99636.40;;;7.70
71205;BMP180;58935;54.498;18.544;2023-12-28T13:13:36;99636.80;;;7.70
71205;BMP180;58935;54.498;18.544;2023-12-28T13:16:02;99628.20;;;7.70
71205;BMP180;58935;54.498;18.544;2023-12-28T13:18:28;99635.20;;;7.70
71205;BMP180;58935;54.498;18.544;2023-12-28T13:20:54;99631.40;;;7.66
71205;BMP180;58935;54.498;18.544;2023-12-28T13:23:19;99620.40;;;7.60
71205;BMP180;58935;54.498;18.544;2023-12-28T13:25:45;99610.80;;;7.60
71205;BMP180;58935;54.498;18.544;2023-12-28T13:28:13;99612.40;;;7.60
71205;BMP180;58935;54.498;18.544;2023-12-28T13:30:39;99614.00;;;7.50
71205;BMP180;58935;54.498;18.544;2023-12-28T13:33:05;99602.60;;;7.50
71205;BMP180;58935;54.498;18.544;2023-12-28T13:35:31;99612.20;;;7.50
71205;BMP180;58935;54.498;18.544;2023-12-28T13:38:00;99612.40;;;7.40
71205;BMP180;58935;54.498;18.544;2023-12-28T13:40:27;99617.60;;;7.40
71205;BMP180;58935;54.498;18.544;2023-12-28T13:42:53;99617.60;;;7.30
71205;BMP180;58935;54.498;18.544;2023-12-28T13:45:18;99614.80;;;7.30
71205;BMP180;58935;54.498;18.544;2023-12-28T13:47:44;99613.40;;;7.20
71205;BMP180;58935;54.498;18.544;2023-12-28T13:50:10;99628.80;;;7.20
71205;BMP180;58935;54.498;18.544;2023-12-28T13:52:35;99628.20;;;7.12
71205;BMP180;58935;54.498;18.544;2023-12-28T13:55:00;99637.60;;;7.10
71205;BMP180;58935;54.498;18.544;2023-12-28T13:57:26;99642.40;;;7.10
71205;BMP180;58935;54.498;18.544;2023-12-28T13:59:51;99642.60;;;7.00
71205;BMP180;58935;54.498;18.544;2023-12-28T14:02:17;99647.40;;;7.00
71205;BMP180;58935;54.498;18.544;2023-12-28T14:04:42;99637.80;;;7.00
71205;BMP180;58935;54.498;18.544;2023-12-28T14:07:10;99635.40;;;6.90
71205;BMP180;58935;54.498;18.544;2023-12-28T14:09:35;99635.60;;;6.90